• Join FlightAware (Why Join?)
  • Login
  • US Flag 
10:23AM EDT


 

Airport Tracker/Info


-or-


 

Live Flight TrackerFlight Track Log ✈ UAL4553 ✈ 23-Nov-2013 ✈ KMCI - KEWR

Flight Track Log - Related Links

Times and Time Zones

All times are in EST time to prevent confusion due to time zone crossing. See the UAL4553 flight status page for this flight to view local times or setup timezone preferences in your user account.

Time Position Orientation Groundspeed Altitude Reporting Facility
EST Latitude Longitude Course Direction KTS MPH feet Rate Location/Type
04:37PM 39.3000 -94.7000 84° East 149 171 1,500  Level Kansas City TRACON
04:37PM 39.3167 -94.7000 360° North 152 175 1,800 2,400 Climbing Kansas City TRACON
04:38PM 39.3333 -94.6500 67° East 190 219 4,400 2,160 Climbing Kansas City TRACON
04:39PM 39.3431 -94.5917 78° East 221 254 5,700 1,980 Climbing Kansas City Center
04:40PM 39.3489 -94.5064 85° East 249 287 8,100 2,460 Climbing Kansas City Center
04:41PM 39.4238 -93.9041 80° East  Level Estimated
04:41PM 39.3572 -94.3869 85° East 298 343 10,800  Level Kansas City Center
04:42PM 39.4365 -93.7395 84° East  Level FlightAware Approximate
04:42PM 39.3642 -94.2744 85° East 338 389 11,600  Level Kansas City Center
04:43PM 39.3744 -94.1264 85° East 372 428 13,600 1,800 Climbing Kansas City Center
04:44PM 39.3822 -93.9967 86° East 377 434 15,300 1,680 Climbing Kansas City Center
04:45PM 39.3989 -93.8417 82° East 389 448 17,100 1,140 Climbing Kansas City Center
04:46PM 39.4172 -93.7067 80° East 398 458 17,700 960 Climbing Kansas City Center
04:47PM 39.4353 -93.5636 81° East 405 466 19,200 1,440 Climbing Kansas City Center
04:48PM 39.4517 -93.4192 82° East 408 470 20,700 1,500 Climbing Kansas City Center
04:49PM 39.4700 -93.2742 81° East 410 472 22,300 1,500 Climbing Kansas City Center
04:50PM 39.4911 -93.0992 81° East 414 476 23,900 1,380 Climbing Kansas City Center
04:51PM 39.5069 -92.9444 82° East 428 493 25,200 1,200 Climbing Kansas City Center
04:52PM 39.5258 -92.7894 81° East 437 503 26,400 1,080 Climbing Kansas City Center
04:53PM 39.5436 -92.6306 82° East 444 511 27,500 960 Climbing Kansas City Center
04:54PM 39.5622 -92.4678 82° East 454 522 28,400 960 Climbing Kansas City Center
04:55PM 39.5839 -92.2661 82° East 467 537 29,600 1,020 Climbing Kansas City Center
04:56PM 39.6031 -92.0953 82° East 475 547 30,600 900 Climbing Kansas City Center
04:57PM 39.6211 -91.9203 82° East 487 560 31,500 900 Climbing Kansas City Center
04:58PM 39.6400 -91.7422 82° East 497 572 32,500 960 Climbing Kansas City Center
04:59PM 39.6597 -91.5617 82° East 505 581 33,500 960 Climbing Kansas City Center
05:00PM 39.6814 -91.3442 83° East 509 586 34,600 720 Climbing Kansas City Center
05:01PM 39.7003 -91.1614 82° East 510 587 35,000 180 Climbing Kansas City Center
05:02PM 39.7189 -90.9689 83° East 524 603 35,000  Level Kansas City Center
05:03PM 39.7392 -90.7686 82° East 538 619 35,000  Level Kansas City Center
05:04PM 39.7592 -90.5628 83° East 561 646 35,000  Level Kansas City Center
05:05PM 39.7792 -90.3525 83° East 580 667 35,000  Level Kansas City Center
05:07PM 39.8025 -90.0972 83° East 591 680 35,000  Level Kansas City Center
05:08PM 39.8214 -89.8864 83° East 593 682 35,000  Level Kansas City Center
05:09PM 39.8386 -89.6767 84° East 589 678 35,000  Level Kansas City Center
05:10PM 39.8408 -89.4617 89° East 595 685 35,000  Level Kansas City Center
05:11PM 39.8419 -89.2456 90° East 599 689 35,000  Level Kansas City Center
05:12PM 39.8422 -88.9864 90° East 599 689 35,000  Level Kansas City Center
05:13PM 39.8422 -88.7675 90° East 605 696 35,000  Level Kansas City Center
05:14PM 39.8425 -88.5489 90° East 605 696 35,000  Level Kansas City Center
05:15PM 39.8403 -88.3308 91° East 604 695 35,000  Level Kansas City Center
05:16PM 39.8400 -88.0936 90° East 609 701 35,000  Level Kansas City Center
05:17PM 39.8372 -87.8717 91° East 610 702 35,000  Level Kansas City Center
05:18PM 39.8347 -87.6481 91° East 612 704 35,000  Level Kansas City Center
05:19PM 39.8311 -87.3731 91° East 616 709 35,000  Level Indianapolis Center
05:20PM 39.8281 -87.1544 91° East 609 701 35,000  Level Indianapolis Center
05:21PM 39.8253 -86.9328 91° East 614 707 35,000  Level Indianapolis Center
05:22PM 39.8211 -86.7133 91° East 611 703 35,000  Level Indianapolis Center
05:23PM 39.8167 -86.4911 91° East 612 704 35,000  Level Indianapolis Center
05:24PM 39.8347 -86.2661 84° East 610 702 35,000  Level Indianapolis Center
05:25PM 39.8811 -86.0553 74° East 595 685 35,000  Level Indianapolis Center
05:26PM 39.9247 -85.8453 75° East 599 689 35,000  Level Indianapolis Center
05:27PM 39.9686 -85.6361 75° East 600 690 35,000  Level Indianapolis Center
05:28PM 40.0114 -85.4281 75° East 597 687 35,000  Level Indianapolis Center
05:29PM 40.0628 -85.1767 75° East 599 689 35,000  Level Indianapolis Center
05:30PM 40.1047 -84.9681 75° East 598 688 35,000  Level Indianapolis Center
05:31PM 40.1483 -84.7533 75° East 599 689 35,000  Level Indianapolis Center
05:32PM 40.1906 -84.5436 75° East 597 687 35,000  Level Indianapolis Center
05:33PM 40.2322 -84.3317 75° East 600 690 35,000  Level Indianapolis Center
05:34PM 40.2725 -84.1217 76° East 594 684 35,000  Level Indianapolis Center
05:35PM 40.3394 -83.9311 65° Northeast 567 652 35,000  Level Indianapolis Center
05:36PM 40.4167 -83.7606 59° Northeast 543 625 35,000  Level Indianapolis Center
05:37PM 40.4958 -83.5897 59° Northeast 542 624 35,000  Level Indianapolis Center
05:38PM 40.5725 -83.4192 59° Northeast 541 623 35,000  Level Indianapolis Center
05:39PM 40.6489 -83.2506 59° Northeast 536 617 35,000  Level Indianapolis Center
05:41PM 40.7358 -83.0561 59° Northeast 535 616 35,000  Level Indianapolis Center
05:42PM 40.7967 -82.8744 66° East 540 621 35,000  Level Indianapolis Center
05:43PM 40.8461 -82.6794 71° East 553 636 35,000  Level Indianapolis Center
05:43PM 40.8778 -82.5511 72° East 554 638 35,000  Level Cleveland Center
05:44PM 40.9261 -82.3578 72° East 552 635 35,000  Level Cleveland Center
05:45PM 40.9753 -82.1622 72° East 556 640 35,000  Level Cleveland Center
05:46PM 41.0325 -81.9286 72° East 567 652 35,000  Level Cleveland Center
05:47PM 41.0811 -81.7303 72° East 568 654 35,000  Level Cleveland Center
05:48PM 41.1292 -81.5342 72° East 568 654 35,000  Level Cleveland Center
05:49PM 41.1753 -81.3375 73° East 560 644 35,000  Level Cleveland Center
05:50PM 41.2208 -81.1414 73° East 557 641 35,000  Level Cleveland Center
05:51PM 41.2681 -80.9400 73° East 567 652 35,000  Level Cleveland Center
05:53PM 41.3136 -80.7383 73° East 567 652 35,000  Level Cleveland Center
05:54PM 41.3686 -80.5011 73° East 570 656 35,000  Level Cleveland Center
05:55PM 41.4136 -80.3072 73° East 569 655 35,000  Level Cleveland Center
05:56PM 41.4589 -80.1067 73° East 567 652 35,000  Level Cleveland Center
05:57PM 41.5053 -79.8992 73° East 566 651 35,000  Level Cleveland Center
05:58PM 41.5503 -79.6975 73° East 567 652 35,000  Level Cleveland Center
05:59PM 41.5944 -79.4953 74° East 568 654 35,000  Level Cleveland Center
06:00PM 41.6381 -79.2928 74° East 569 655 35,000  Level Cleveland Center
06:01PM 41.6425 -79.0825 88° East 568 654 35,000  Level Cleveland Center
06:02PM 41.6136 -78.8306 99° East 573 659 35,000  Level Cleveland Center
06:03PM 41.5894 -78.6200 99° East 572 658 35,000 -660 Level Cleveland Center
06:04PM 41.5650 -78.4122 99° East 568 654 33,700 -1,380 Descending Cleveland Center
06:05PM 41.5411 -78.2083 99° East 557 641 32,200 -1,260 Descending Cleveland Center
06:06PM 41.5153 -77.9997 99° East 567 652 31,200 -840 Descending Cleveland Center
06:06PM 41.5014 -77.8956 100° East 567 652 31,000 -180 Descending New York Center
06:07PM 41.4722 -77.6847 100° East 572 658 31,000  Level New York Center
06:08PM 41.4375 -77.4514 101° East 580 667 31,000  Level New York Center
06:09PM 41.4086 -77.2631 101° East 580 667 31,000 -600 Level New York Center
06:10PM 41.3783 -77.0500 101° East 580 667 29,900 -1,500 Descending New York Center
06:11PM 41.3456 -76.8397 102° East 580 667 28,000 -2,400 Descending New York Center
06:12PM 41.2994 -76.6339 107° East 580 667 25,100 -2,820 Descending New York Center
06:13PM 41.2483 -76.4444 110° East 565 650 22,400 -2,700 Descending New York Center
06:14PM 41.2003 -76.2694 110° East 536 617 19,700 -2,220 Descending New York Center
06:15PM 41.1489 -76.0753 109° East 506 582 18,000 -1,740 Descending New York Center
06:16PM 41.1094 -75.9289 110° East 481 554 16,300 -1,920 Descending New York Center
06:17PM 41.0681 -75.7772 110° East 453 521 14,200 -1,680 Descending New York Center
06:18PM 41.0244 -75.6200 110° East 424 488 13,000 -780 Descending New York Center
06:19PM 40.9861 -75.4881 111° Southeast 419 482 12,700 -900 Descending New York Center
06:20PM 40.9439 -75.3422 111° Southeast 413 475 11,200 -1,320 Descending New York Center
06:21PM 40.9167 -75.2386 109° East 358 412 10,100 -1,200 Descending New York Center
06:22PM 40.8872 -75.1353 111° Southeast 315 362 8,900 -1,320 Descending New York Center
06:23PM 40.8558 -75.0208 110° East 295 339 7,500 -960 Descending New York Center
06:24PM 40.8261 -74.9203 111° Southeast 295 339 7,000 -420 Descending New York Center
06:25PM 40.8383 -74.8111 82° East 296 341 6,700 -540 Descending New York Center
06:26PM 40.8603 -74.7136 73° East 282 325 6,000 -420 Descending New York Center
06:27PM 40.8761 -74.6131 78° East 276 318 5,900 -420 Descending New York Center
06:28PM 40.8900 -74.5097 80° East 276 318 5,200 -480 Descending New York Center
06:29PM 40.9036 -74.4089 80° East 276 318 5,000 -120 Descending New York Center
06:30PM 40.9167 -74.3167 79° East 291 335 5,000  Level New York TRACON
06:31PM 40.9167 -74.2333 90° East 238 274 5,000 -300 Level New York TRACON
06:32PM 40.9167 -74.1500 90° East 219 252 4,400 -780 Descending New York TRACON
06:33PM 40.9000 -74.1000 114° Southeast 208 239 3,600 -780 Descending New York TRACON
06:34PM 40.8667 -74.0500 131° Southeast 201 231 3,000 -300 Descending New York TRACON
06:35PM 40.8333 -74.0833 217° Southwest 161 185 3,000 -420 Level New York TRACON
06:36PM 40.7833 -74.1000 194° South 167 192 2,200 -900 Descending New York TRACON
06:37PM 40.7500 -74.1333 217° Southwest 143 165 1,200 -900 Descending New York TRACON
06:38PM 40.7167 -74.1500 201° Southwest 135 155 400 -840 Descending New York TRACON